Time;durP1;ratioP1;P1;durP2;ratioP2;P2;SDS_P1;SDS_P2;PMS_P1;PMS_P2;Temp;Humidity;BMP_temperature;BMP_pressure;BME280_temperature;BME280_humidity;BME280_pressure;Samples;Min_cycle;Max_cycle;Signal;HPM_P1;HPM_P2
2021/08/25 00:01:13;;;;;;;25.42;16.95;;;;;;;15.57;82.77;102849.47;4986578;28;20033;-48
2021/08/25 00:03:39;;;;;;;30.42;17.70;;;;;;;15.54;82.87;102847.69;4988546;28;20830;-51
2021/08/25 00:06:04;;;;;;;30.20;18.83;;;;;;;15.53;83.00;102850.25;4983293;28;20455;-50
2021/08/25 00:08:30;;;;;;;35.50;19.63;;;;;;;15.53;83.21;102853.78;4990411;28;20022;-50
2021/08/25 00:10:55;;;;;;;29.30;18.50;;;;;;;15.49;82.94;102843.97;4980103;28;20041;-46
2021/08/25 00:13:21;;;;;;;33.67;19.25;;;;;;;15.49;83.20;102845.75;4987174;28;20092;-47
2021/08/25 00:15:46;;;;;;;27.50;18.70;;;;;;;15.49;83.21;102843.13;4981829;28;20576;-49
2021/08/25 00:18:12;;;;;;;30.75;17.75;;;;;;;15.48;83.45;102846.59;4980687;28;20041;-47
2021/08/25 00:20:38;;;;;;;31.38;18.90;;;;;;;15.43;82.99;102841.19;4977435;28;20030;-49
2021/08/25 00:23:04;;;;;;;33.17;18.52;;;;;;;15.39;82.98;102842.88;4982867;28;20453;-49
2021/08/25 00:25:30;;;;;;;32.30;19.83;;;;;;;15.37;83.06;102843.69;4988241;28;20052;-50
2021/08/25 00:27:55;;;;;;;33.95;20.45;;;;;;;15.34;83.44;102834.00;4984525;28;20116;-47
2021/08/25 00:30:21;;;;;;;34.08;20.67;;;;;;;15.35;83.78;102827.91;4982834;28;20623;-48
2021/08/25 00:32:47;;;;;;;32.10;18.48;;;;;;;15.37;83.34;102827.91;4996226;28;20454;-48
2021/08/25 00:35:12;;;;;;;34.90;20.40;;;;;;;15.33;83.45;102820.81;4986630;28;20080;-48
2021/08/25 00:37:38;;;;;;;35.47;21.77;;;;;;;15.32;83.84;102826.91;4981805;28;20106;-48
2021/08/25 00:40:05;;;;;;;33.58;19.50;;;;;;;15.30;83.80;102815.50;4985082;28;20529;-49
2021/08/25 00:42:30;;;;;;;39.67;21.45;;;;;;;15.27;83.98;102818.94;4986126;28;20045;-48
2021/08/25 00:44:55;;;;;;;36.95;21.27;;;;;;;15.29;83.98;102811.97;4985612;28;20108;-46
2021/08/25 00:47:21;;;;;;;36.70;21.55;;;;;;;15.29;84.10;102818.97;4982504;28;20756;-47
2021/08/25 00:49:46;;;;;;;44.88;22.95;;;;;;;15.26;84.59;102811.88;4984935;28;20032;-50
2021/08/25 00:52:12;;;;;;;41.55;21.88;;;;;;;15.29;84.17;102809.34;4984408;28;20448;-48
2021/08/25 00:54:38;;;;;;;37.83;20.88;;;;;;;15.30;83.97;102807.63;4986194;28;20841;-46
2021/08/25 00:57:04;;;;;;;37.83;21.42;;;;;;;15.28;84.35;102810.19;4977639;28;20104;-52
2021/08/25 00:59:30;;;;;;;36.33;21.10;;;;;;;15.27;84.05;102808.41;4986675;28;20037;-50
2021/08/25 01:02:18;;;;;;;44.80;23.42;;;;;;;15.25;84.33;102804.84;4983615;28;20446;-50
2021/08/25 01:04:52;;;;;;;40.42;21.00;;;;;;;15.25;84.25;102803.97;4982758;28;20034;-49
2021/08/25 01:07:17;;;;;;;39.93;22.23;;;;;;;15.24;84.58;102802.22;4980559;28;20123;-49
2021/08/25 01:09:43;;;;;;;40.47;21.67;;;;;;;15.22;84.22;102802.16;4986348;28;20590;-47
2021/08/25 01:12:11;;;;;;;36.38;19.48;;;;;;;15.18;84.14;102810.81;4985101;28;20030;-50
2021/08/25 01:14:40;;;;;;;33.65;18.90;;;;;;;15.12;83.75;102805.41;4985877;28;20022;-48
2021/08/25 01:17:06;;;;;;;36.42;20.15;;;;;;;15.12;84.29;102799.28;4981537;28;20037;-52
2021/08/25 01:19:51;;;;;;;36.17;19.98;;;;;;;15.07;84.27;102800.88;4983304;28;20437;-48
2021/08/25 01:22:19;;;;;;;42.35;22.33;;;;;;;15.05;84.52;102799.97;4986908;28;20018;-48
2021/08/25 01:24:49;;;;;;;41.00;20.10;;;;;;;15.03;84.31;102795.56;4981759;28;20495;-50
2021/08/25 01:27:17;;;;;;;34.10;18.92;;;;;;;14.94;83.80;102800.56;4976585;28;20017;-49
2021/08/25 01:29:43;;;;;;;36.90;21.00;;;;;;;14.92;84.53;102799.66;4981292;28;20034;-48
2021/08/25 01:32:10;;;;;;;33.28;18.90;;;;;;;14.88;84.28;102803.03;4978821;28;20065;-48
2021/08/25 01:34:58;;;;;;;42.50;22.70;;;;;;;14.86;84.60;102802.13;4986239;28;20541;-49
2021/08/25 01:37:27;;;;;;;39.17;21.30;;;;;;;14.81;84.44;102795.84;4985771;28;20552;-48
2021/08/25 01:39:53;;;;;;;50.60;25.98;;;;;;;14.76;84.48;102789.56;4999784;28;20478;-52
2021/08/25 01:42:19;;;;;;;44.85;22.50;;;;;;;14.75;84.53;102790.44;4981014;28;20054;-51
2021/08/25 01:44:45;;;;;;;40.75;20.35;;;;;;;14.70;84.30;102794.66;4982111;28;20668;-49
2021/08/25 01:47:11;;;;;;;44.53;23.90;;;;;;;14.66;84.34;102787.56;4978777;28;20294;-49
2021/08/25 01:49:37;;;;;;;43.03;22.60;;;;;;;14.63;84.83;102784.84;4982469;28;20069;-47
2021/08/25 01:52:06;;;;;;;47.75;24.08;;;;;;;14.63;84.73;102784.84;4982438;28;20108;-51
2021/08/25 01:54:32;;;;;;;50.83;25.13;;;;;;;14.64;84.98;102785.75;4984875;28;20033;-49
2021/08/25 01:56:57;;;;;;;46.10;23.98;;;;;;;14.62;84.64;102783.06;4980596;28;20088;-46
2021/08/25 01:59:23;;;;;;;44.60;22.67;;;;;;;14.59;84.44;102780.34;4981634;28;20030;-50
2021/08/25 02:01:48;;;;;;;54.13;24.90;;;;;;;14.55;84.81;102779.41;4979756;28;20030;-50
2021/08/25 02:04:14;;;;;;;55.60;25.60;;;;;;;14.56;85.08;102768.06;4978941;28;20044;-52
2021/08/25 02:06:39;;;;;;;40.47;22.13;;;;;;;14.55;84.68;102768.00;4983193;28;20132;-52
2021/08/25 02:09:05;;;;;;;64.03;28.33;;;;;;;14.56;85.40;102767.16;4982679;28;20038;-49
2021/08/25 02:11:30;;;;;;;54.30;25.83;;;;;;;14.56;84.89;102767.16;4985565;28;20049;-48
2021/08/25 02:13:55;;;;;;;53.72;26.60;;;;;;;14.57;85.24;102761.97;4981971;28;20026;-47
2021/08/25 02:16:21;;;;;;;60.22;28.95;;;;;;;14.58;85.62;102760.19;4981469;28;20176;-47
2021/08/25 02:18:46;;;;;;;51.08;25.83;;;;;;;14.58;85.41;102754.94;4982230;28;20030;-50
2021/08/25 02:21:12;;;;;;;47.67;25.00;;;;;;;14.49;84.83;102752.97;4977652;28;20026;-48
2021/08/25 02:23:38;;;;;;;61.97;28.45;;;;;;;14.47;85.33;102759.91;4988038;28;20029;-46
2021/08/25 02:26:03;;;;;;;60.78;28.35;;;;;;;14.47;85.31;102757.28;4979687;28;20077;-48
2021/08/25 02:28:29;;;;;;;44.08;23.83;;;;;;;14.44;84.92;102745.84;4968467;28;20018;-52
2021/08/25 02:30:54;;;;;;;45.70;22.80;;;;;;;14.39;84.67;102744.81;4980668;28;20109;-49
2021/08/25 02:33:20;;;;;;;50.45;25.00;;;;;;;14.36;84.93;102750.84;4981526;28;20112;-50
2021/08/25 02:35:45;;;;;;;61.83;29.50;;;;;;;14.36;85.60;102747.31;4983211;28;20328;-49
2021/08/25 02:38:11;;;;;;;66.95;29.65;;;;;;;14.39;85.66;102752.69;4980156;28;20096;-46
2021/08/25 02:40:36;;;;;;;63.80;29.17;;;;;;;14.38;85.65;102746.56;4977818;28;20046;-47
2021/08/25 02:43:02;;;;;;;69.55;31.45;;;;;;;14.37;85.88;102743.84;4982768;28;20347;-48
2021/08/25 02:45:27;;;;;;;65.53;31.02;;;;;;;14.36;85.77;102742.97;4983763;28;20031;-46
2021/08/25 02:47:53;;;;;;;65.57;28.85;;;;;;;14.33;85.66;102745.50;4978433;28;20048;-47
2021/08/25 02:50:18;;;;;;;57.58;28.02;;;;;;;14.32;85.59;102740.22;4977753;28;20065;-47
2021/08/25 02:52:44;;;;;;;59.03;27.17;;;;;;;14.29;85.53;102741.00;4984957;28;20057;-47
2021/08/25 02:55:10;;;;;;;68.75;31.92;;;;;;;14.29;85.56;102737.50;4978350;28;20069;-47
2021/08/25 02:57:35;;;;;;;63.78;30.40;;;;;;;14.27;85.76;102741.81;4982889;28;20073;-48
2021/08/25 03:00:01;;;;;;;62.53;29.40;;;;;;;14.23;85.40;102728.59;4984702;28;20544;-47
2021/08/25 03:02:26;;;;;;;66.03;30.38;;;;;;;14.21;85.38;102726.78;4979375;28;20038;-47
2021/08/25 03:04:51;;;;;;;72.00;32.70;;;;;;;14.20;85.83;102732.91;4982501;28;20181;-52
2021/08/25 03:07:17;;;;;;;51.70;25.17;;;;;;;14.17;85.51;102724.94;4981466;28;20069;-47
2021/08/25 03:09:42;;;;;;;55.40;26.55;;;;;;;14.14;85.49;102725.75;4981125;28;20026;-49
2021/08/25 03:12:08;;;;;;;56.92;28.05;;;;;;;14.12;85.25;102726.53;4972713;28;20499;-47
2021/08/25 03:14:33;;;;;;;74.88;32.55;;;;;;;14.11;85.79;102730.00;4982402;28;20030;-47
2021/08/25 03:16:58;;;;;;;70.10;30.85;;;;;;;14.16;86.27;102716.16;4979608;28;20065;-47
2021/08/25 03:19:24;;;;;;;60.65;28.20;;;;;;;14.19;85.98;102720.63;4981631;28;20034;-50
2021/08/25 03:21:49;;;;;;;69.10;31.80;;;;;;;14.15;85.92;102713.50;4986749;28;20026;-49
2021/08/25 03:24:14;;;;;;;80.78;34.53;;;;;;;14.15;86.06;102717.00;4984579;28;20134;-48
2021/08/25 03:26:40;;;;;;;78.10;33.38;;;;;;;14.17;86.23;102714.44;4983986;28;20112;-50
2021/08/25 03:29:05;;;;;;;74.82;31.65;;;;;;;14.17;85.96;102711.81;4981473;28;20442;-50
2021/08/25 03:31:31;;;;;;;78.45;32.40;;;;;;;14.16;86.32;102704.78;4984631;28;20030;-48
2021/08/25 03:33:56;;;;;;;59.40;28.38;;;;;;;14.14;85.64;102707.38;4986240;28;20034;-48
2021/08/25 03:36:21;;;;;;;62.13;29.25;;;;;;;14.13;85.78;102708.22;4983297;28;20526;-49
2021/08/25 03:38:47;;;;;;;59.88;27.33;;;;;;;14.11;85.62;102707.28;4986209;28;20030;-51
2021/08/25 03:41:12;;;;;;;76.88;32.17;;;;;;;14.11;85.64;102701.16;4988139;28;20052;-51
2021/08/25 03:43:38;;;;;;;78.40;34.25;;;;;;;14.14;86.03;102703.88;4983025;28;20057;-49
2021/08/25 03:46:03;;;;;;;78.22;33.10;;;;;;;14.19;86.19;102707.50;4982753;28;20030;-50
2021/08/25 03:48:29;;;;;;;86.95;36.40;;;;;;;14.23;86.44;102702.38;4986438;28;21484;-54
2021/08/25 03:50:55;;;;;;;82.05;34.88;;;;;;;14.28;86.45;102693.72;4984352;28;20018;-50
2021/08/25 03:53:20;;;;;;;89.70;37.55;;;;;;;14.29;86.63;102695.50;4986868;28;20038;-48
2021/08/25 03:55:45;;;;;;;88.47;36.30;;;;;;;14.33;86.38;102693.03;4983807;28;20037;-49
2021/08/25 03:58:11;;;;;;;90.22;36.17;;;;;;;14.36;86.33;102700.97;4985237;28;20141;-51
2021/08/25 04:00:36;;;;;;;79.85;33.85;;;;;;;14.37;86.23;102694.91;4983924;28;20470;-50
2021/08/25 04:03:02;;;;;;;80.03;34.80;;;;;;;14.38;86.36;102691.47;4982629;28;20613;-48
2021/08/25 04:05:27;;;;;;;81.07;34.58;;;;;;;14.41;86.09;102685.38;4983699;28;20579;-50
2021/08/25 04:07:52;;;;;;;77.78;32.47;;;;;;;14.43;86.21;102681.97;4982290;28;20268;-50
2021/08/25 04:10:18;;;;;;;77.47;33.20;;;;;;;14.44;85.82;102682.84;4983770;28;20052;-49
2021/08/25 04:12:43;;;;;;;85.47;35.30;;;;;;;14.47;85.93;102682.91;4980900;28;20577;-51
2021/08/25 04:15:09;;;;;;;86.05;35.42;;;;;;;14.48;86.25;102682.97;4987099;28;20088;-48
2021/08/25 04:17:34;;;;;;;88.78;36.05;;;;;;;14.52;86.22;102671.69;4987096;28;20040;-49
2021/08/25 04:20:00;;;;;;;91.75;36.38;;;;;;;14.54;86.40;102672.63;4981518;28;20510;-50
2021/08/25 04:22:26;;;;;;;86.95;36.08;;;;;;;14.59;86.01;102668.38;4985521;28;20022;-47
2021/08/25 04:24:52;;;;;;;85.00;35.42;;;;;;;14.61;86.04;102671.03;4987071;28;20056;-49
2021/08/25 04:27:17;;;;;;;86.80;36.10;;;;;;;14.64;86.01;102667.63;4983337;28;20037;-46
2021/08/25 04:29:43;;;;;;;83.97;34.45;;;;;;;14.67;86.07;102662.44;4978537;28;20057;-51
2021/08/25 04:32:09;;;;;;;85.25;34.70;;;;;;;14.70;85.89;102671.25;4989943;28;20034;-48
2021/08/25 04:34:34;;;;;;;85.95;35.80;;;;;;;14.72;85.89;102666.94;4980810;28;20022;-46
2021/08/25 04:36:59;;;;;;;78.15;35.00;;;;;;;14.75;85.91;102669.66;4981387;28;20096;-51
2021/08/25 04:39:25;;;;;;;100.57;37.35;;;;;;;14.76;85.91;102667.94;4984152;28;20030;-46
2021/08/25 04:41:50;;;;;;;97.38;37.63;;;;;;;14.78;85.83;102669.72;4983231;28;20302;-47
2021/08/25 04:44:16;;;;;;;93.57;37.67;;;;;;;14.82;86.00;102676.81;4986042;28;20274;-47
2021/08/25 04:46:41;;;;;;;102.15;38.72;;;;;;;14.87;85.92;102674.31;4985218;28;20465;-51
2021/08/25 04:49:08;;;;;;;115.28;39.88;;;;;;;14.91;85.87;102676.16;4988085;28;20038;-51
2021/08/25 04:51:33;;;;;;;128.68;40.20;;;;;;;14.91;85.91;102671.81;4982987;28;20129;-51
2021/08/25 04:53:59;;;;;;;115.93;41.08;;;;;;;14.95;85.79;102670.13;4978917;28;20422;-47
2021/08/25 04:56:24;;;;;;;121.28;39.60;;;;;;;14.93;85.86;102678.00;4983529;28;20040;-46
2021/08/25 04:58:50;;;;;;;99.53;36.33;;;;;;;15.02;85.93;102666.81;4986627;28;20443;-47
2021/08/25 05:01:15;;;;;;;163.35;41.25;;;;;;;14.99;86.19;102669.38;4982809;28;20066;-49
2021/08/25 05:03:41;;;;;;;151.45;39.47;;;;;;;15.02;85.84;102666.81;4982993;28;20544;-49
2021/08/25 05:06:08;;;;;;;129.35;39.83;;;;;;;15.07;85.84;102673.03;4985999;28;20105;-52
2021/08/25 05:08:33;;;;;;;145.32;39.58;;;;;;;15.03;85.71;102668.59;4983531;28;20100;-52
2021/08/25 05:10:58;;;;;;;233.52;39.75;;;;;;;15.02;85.75;102665.06;4984207;28;20042;-53
2021/08/25 05:13:24;;;;;;;120.45;40.70;;;;;;;15.06;85.92;102659.91;4983104;28;20500;-49
2021/08/25 05:15:49;;;;;;;113.90;38.67;;;;;;;15.04;86.01;102670.34;4982803;28;20466;-51
2021/08/25 05:18:15;;;;;;;162.70;38.50;;;;;;;15.07;85.79;102667.78;4979378;28;20026;-48
2021/08/25 05:20:40;;;;;;;271.90;38.38;;;;;;;14.98;86.05;102668.47;4984208;28;20030;-49
2021/08/25 05:23:06;;;;;;;296.40;38.78;;;;;;;14.99;85.96;102666.75;4982570;28;20046;-49
2021/08/25 05:25:34;;;;;;;111.72;39.08;;;;;;;15.09;85.88;102671.34;4982931;28;20029;-52
2021/08/25 05:28:00;;;;;;;150.77;40.53;;;;;;;15.11;85.86;102677.53;4983470;28;20037;-48
2021/08/25 05:30:25;;;;;;;123.80;40.97;;;;;;;15.20;85.90;102676.84;4980969;28;20026;-49
2021/08/25 05:32:53;;;;;;;194.18;38.63;;;;;;;15.23;85.84;102663.78;4981931;28;20141;-49
2021/08/25 05:35:19;;;;;;;150.93;37.95;;;;;;;15.26;85.68;102676.97;4981325;28;20666;-47
2021/08/25 05:37:46;;;;;;;194.63;36.60;;;;;;;15.08;85.78;102666.94;4982218;28;20038;-49
2021/08/25 05:40:12;;;;;;;217.85;37.25;;;;;;;15.16;85.91;102665.38;4977984;28;20036;-49
2021/08/25 05:42:38;;;;;;;185.30;36.80;;;;;;;15.12;86.07;102667.91;4983471;28;20113;-47
2021/08/25 05:45:03;;;;;;;127.93;37.53;;;;;;;15.26;85.79;102666.47;4981944;28;20030;-49
2021/08/25 05:47:29;;;;;;;195.57;39.88;;;;;;;15.16;85.89;102670.66;4982211;28;20598;-46
2021/08/25 05:49:54;;;;;;;98.47;39.80;;;;;;;15.30;85.79;102674.50;4982240;28;20129;-46
2021/08/25 05:52:20;;;;;;;172.80;38.78;;;;;;;15.19;85.90;102675.94;4982156;28;20022;-52
2021/08/25 05:54:45;;;;;;;165.43;37.35;;;;;;;15.19;85.63;102673.31;4984455;28;20038;-47
2021/08/25 05:57:10;;;;;;;124.45;38.88;;;;;;;15.26;85.84;102669.09;4982663;28;20062;-53
2021/08/25 05:59:36;;;;;;;152.30;36.33;;;;;;;15.31;85.37;102673.59;4985898;28;20121;-47
2021/08/25 06:02:01;;;;;;;99.22;37.45;;;;;;;15.40;85.47;102673.81;4982628;28;20025;-47
2021/08/25 06:04:26;;;;;;;102.70;37.20;;;;;;;15.54;85.43;102675.91;4984392;28;20033;-48
2021/08/25 06:06:52;;;;;;;124.40;35.47;;;;;;;15.52;85.09;102677.56;4978111;28;20085;-47
2021/08/25 06:09:17;;;;;;;79.97;36.05;;;;;;;15.61;85.08;102678.72;4983473;28;20124;-49
2021/08/25 06:11:42;;;;;;;77.82;34.83;;;;;;;15.73;84.97;102683.34;4982913;28;20120;-49
2021/08/25 06:14:08;;;;;;;78.35;35.17;;;;;;;15.85;85.05;102672.19;4983827;28;20414;-48
2021/08/25 06:16:34;;;;;;;81.18;35.70;;;;;;;15.97;84.77;102669.78;4985083;28;20674;-48
2021/08/25 06:18:59;;;;;;;71.50;34.35;;;;;;;16.06;84.92;102670.84;4984593;28;20577;-48
2021/08/25 06:21:24;;;;;;;122.07;28.92;;;;;;;16.00;83.97;102676.00;4984330;28;20053;-47
2021/08/25 06:23:50;;;;;;;55.85;29.02;;;;;;;15.97;83.72;102670.69;4982674;28;20104;-49
2021/08/25 06:26:15;;;;;;;56.15;28.88;;;;;;;15.86;83.94;102674.81;4976795;28;20040;-48
2021/08/25 06:28:41;;;;;;;62.05;30.10;;;;;;;15.92;83.89;102672.31;4983687;28;20097;-52
2021/08/25 06:31:06;;;;;;;57.70;29.83;;;;;;;16.06;83.82;102675.22;4977461;28;21481;-47
2021/08/25 06:33:33;;;;;;;52.50;28.63;;;;;;;16.13;83.29;102671.84;4984865;28;20210;-51
2021/08/25 06:35:59;;;;;;;58.25;28.35;;;;;;;16.01;83.18;102671.63;4984897;28;20076;-51
2021/08/25 06:38:24;;;;;;;70.38;27.77;;;;;;;15.94;83.37;102675.88;4984002;28;20037;-48
2021/08/25 06:40:50;;;;;;;60.95;27.95;;;;;;;16.06;83.49;102678.75;4984963;28;20046;-49
2021/08/25 06:43:15;;;;;;;56.75;28.10;;;;;;;16.23;83.27;102671.16;4993035;28;20113;-50
2021/08/25 06:45:41;;;;;;;68.07;26.25;;;;;;;16.18;82.48;102678.97;4980846;28;20559;-50
2021/08/25 06:48:06;;;;;;;61.08;26.77;;;;;;;16.20;82.30;102687.81;4979803;28;20575;-50
2021/08/25 06:50:32;;;;;;;48.92;25.50;;;;;;;16.31;82.26;102680.09;4985612;28;20034;-49
2021/08/25 06:52:57;;;;;;;44.13;25.38;;;;;;;16.47;82.06;102684.75;4987642;28;20474;-50
2021/08/25 06:55:22;;;;;;;39.70;23.08;;;;;;;16.54;81.82;102688.41;4986028;28;20522;-50
2021/08/25 06:57:48;;;;;;;40.83;24.00;;;;;;;16.51;81.12;102688.34;4980794;28;20036;-49
2021/08/25 07:00:14;;;;;;;43.65;24.88;;;;;;;16.67;80.81;102692.16;4983680;28;20026;-47
2021/08/25 07:02:39;;;;;;;42.92;24.67;;;;;;;16.71;80.74;102694.00;4985987;28;20057;-49
2021/08/25 07:05:06;;;;;;;41.42;24.08;;;;;;;16.59;79.51;102689.34;4989064;28;20074;-48
2021/08/25 07:07:32;;;;;;;42.78;25.85;;;;;;;16.71;80.55;102691.38;4981529;28;20032;-45
2021/08/25 07:09:57;;;;;;;40.78;24.15;;;;;;;16.69;80.44;102680.81;4988398;28;20735;-47
2021/08/25 07:12:23;;;;;;;36.25;21.98;;;;;;;16.79;79.87;102685.38;4983957;28;20033;-49
2021/08/25 07:14:48;;;;;;;40.03;24.55;;;;;;;16.86;79.35;102681.09;4983872;28;20501;-52
2021/08/25 07:17:14;;;;;;;39.28;23.88;;;;;;;16.88;78.98;102682.91;4984760;28;20030;-47
2021/08/25 07:19:41;;;;;;;38.00;23.92;;;;;;;17.04;79.46;102686.66;4980876;28;20076;-49
2021/08/25 07:22:07;;;;;;;36.28;23.40;;;;;;;17.18;78.54;102684.22;4986888;28;20030;-47
2021/08/25 07:24:33;;;;;;;37.08;22.80;;;;;;;17.27;78.79;102685.22;4982530;28;20041;-50
2021/08/25 07:26:58;;;;;;;37.10;23.25;;;;;;;17.55;78.10;102688.28;4984708;28;20273;-52
2021/08/25 07:29:24;;;;;;;37.67;22.63;;;;;;;17.54;77.05;102689.13;4988120;28;20104;-48
2021/08/25 07:31:49;;;;;;;34.53;21.88;;;;;;;17.66;76.66;102687.59;4978351;28;20026;-47
2021/08/25 07:34:16;;;;;;;36.47;22.33;;;;;;;17.73;77.09;102683.28;4983331;28;20493;-48
2021/08/25 07:36:41;;;;;;;41.35;22.90;;;;;;;17.86;77.04;102684.31;4986126;28;20634;-53
2021/08/25 07:39:07;;;;;;;34.90;22.05;;;;;;;17.79;75.54;102688.63;4986895;28;20034;-47
2021/08/25 07:41:32;;;;;;;32.90;22.08;;;;;;;17.77;75.52;102682.44;4988905;28;20064;-47
2021/08/25 07:43:58;;;;;;;34.17;21.98;;;;;;;17.91;75.75;102679.97;4988513;28;20034;-47
2021/08/25 07:46:31;;;;;;;34.25;22.65;;;;;;;18.21;76.66;102675.91;4984254;28;20037;-51
2021/08/25 07:48:57;;;;;;;33.70;21.73;;;;;;;18.51;74.28;102674.44;4985884;28;20026;-46
2021/08/25 07:51:24;;;;;;;30.83;21.08;;;;;;;18.76;72.42;102678.22;4979029;28;20816;-49
2021/08/25 07:53:50;;;;;;;32.67;21.05;;;;;;;18.96;72.24;102671.34;4983176;28;20644;-50
2021/08/25 07:56:15;;;;;;;30.83;20.58;;;;;;;18.80;71.33;102674.72;4981392;28;20609;-50
2021/08/25 07:58:40;;;;;;;30.67;21.27;;;;;;;19.03;70.99;102673.13;4987099;28;20493;-51
2021/08/25 08:01:06;;;;;;;31.05;21.42;;;;;;;19.19;70.16;102675.03;4984660;28;20064;-49
2021/08/25 08:03:31;;;;;;;32.88;21.08;;;;;;;19.20;70.02;102670.63;4983622;28;20044;-48
2021/08/25 08:05:57;;;;;;;34.97;21.73;;;;;;;19.12;69.79;102670.56;4983374;28;20026;-48
2021/08/25 08:08:25;;;;;;;35.05;22.48;;;;;;;18.97;70.60;102671.34;4982799;28;20149;-47
2021/08/25 08:10:51;;;;;;;35.00;22.58;;;;;;;18.97;70.50;102683.66;4987332;28;20033;-49
2021/08/25 08:13:16;;;;;;;30.70;22.25;;;;;;;19.02;70.67;102668.75;4985014;28;20058;-46
2021/08/25 08:15:42;;;;;;;30.45;21.60;;;;;;;19.25;70.67;102671.53;4982376;28;20110;-48
2021/08/25 08:18:19;;;;;;;28.73;21.17;;;;;;;19.67;70.39;102671.78;4985601;28;20027;-48
2021/08/25 08:20:44;;;;;;;30.52;20.58;;;;;;;20.14;69.00;102656.06;4971802;28;20039;-48
2021/08/25 08:23:10;;;;;;;28.33;19.55;;;;;;;20.60;70.23;102664.09;4984714;28;20037;-47
2021/08/25 08:25:35;;;;;;;27.75;20.60;;;;;;;20.75;67.23;102664.09;4980372;28;20053;-51
2021/08/25 08:28:00;;;;;;;26.27;18.65;;;;;;;20.11;66.13;102652.53;4981123;28;20092;-46
2021/08/25 08:30:26;;;;;;;23.45;18.27;;;;;;;20.45;66.10;102657.03;4984152;28;20402;-49
2021/08/25 08:32:51;;;;;;;24.95;18.40;;;;;;;20.53;65.50;102663.22;4982231;28;20108;-49
2021/08/25 08:35:17;;;;;;;24.02;17.23;;;;;;;20.53;64.93;102654.38;4985306;28;20116;-50
2021/08/25 08:37:42;;;;;;;22.20;16.65;;;;;;;20.76;65.01;102654.38;4983573;28;20034;-47
2021/08/25 08:40:08;;;;;;;22.75;14.88;;;;;;;21.08;63.63;102652.59;4988553;28;20026;-48
2021/08/25 08:42:34;;;;;;;21.95;14.88;;;;;;;21.19;61.57;102652.59;4980486;28;20466;-50
2021/08/25 08:45:02;;;;;;;18.42;13.75;;;;;;;21.47;61.29;102646.28;4982718;28;20492;-48
2021/08/25 08:47:28;;;;;;;18.85;14.18;;;;;;;21.21;61.06;102638.44;4980860;28;20040;-49
2021/08/25 08:49:57;;;;;;;16.73;13.48;;;;;;;21.65;59.40;102635.59;4986315;28;20167;-46
2021/08/25 08:52:23;;;;;;;16.70;13.00;;;;;;;21.52;59.32;102638.34;4981563;28;20081;-50
2021/08/25 08:54:50;;;;;;;19.60;13.88;;;;;;;20.91;60.48;102646.44;4978856;28;20789;-47
2021/08/25 08:57:16;;;;;;;19.00;12.77;;;;;;;21.12;61.78;102646.38;4983538;28;20902;-47
2021/08/25 08:59:41;;;;;;;17.52;12.75;;;;;;;21.14;59.81;102636.66;4980311;28;20161;-47
2021/08/25 09:02:06;;;;;;;16.65;12.80;;;;;;;21.06;60.35;102631.34;4972654;28;20038;-48
2021/08/25 09:04:36;;;;;;;18.10;12.52;;;;;;;20.86;60.32;102633.16;4981944;28;20041;-49
2021/08/25 09:07:02;;;;;;;18.13;13.13;;;;;;;20.84;61.19;102634.94;4981032;28;20035;-48
2021/08/25 09:09:28;;;;;;;17.90;12.98;;;;;;;21.28;59.40;102626.94;4982967;28;20053;-49
2021/08/25 09:11:55;;;;;;;18.92;12.20;;;;;;;21.47;59.68;102622.41;4981695;28;20617;-47
2021/08/25 09:14:24;;;;;;;14.40;11.05;;;;;;;21.65;59.62;102617.03;4984474;28;20035;-47
2021/08/25 09:16:50;;;;;;;13.63;9.60;;;;;;;22.09;58.84;102610.63;4981259;28;20125;-46
2021/08/25 09:19:17;;;;;;;16.33;10.43;;;;;;;22.13;56.60;102605.28;4984262;28;20044;-47
2021/08/25 09:21:52;;;;;;;15.50;10.07;;;;;;;22.16;55.79;102599.06;4983360;28;20038;-46
2021/08/25 09:24:22;;;;;;;13.60;9.82;;;;;;;21.90;55.24;102608.94;4965580;28;20088;-47
2021/08/25 09:27:07;;;;;;;11.77;9.13;;;;;;;22.10;57.28;102607.94;4980354;28;20033;-47
2021/08/25 09:29:34;;;;;;;13.00;9.13;;;;;;;22.36;55.88;102598.91;4999317;28;20097;-48
2021/08/25 09:31:59;;;;;;;13.60;8.13;;;;;;;22.72;54.51;102600.34;4999461;28;20141;-46
2021/08/25 09:34:32;;;;;;;13.13;7.68;;;;;;;23.15;53.58;102599.06;4988774;28;20035;-50
2021/08/25 09:37:13;;;;;;;10.38;6.60;;;;;;;23.65;54.25;102600.25;4980787;28;20033;-47
2021/08/25 09:39:44;;;;;;;9.95;6.32;;;;;;;23.56;53.32;102603.88;4979718;28;20026;-46
2021/08/25 09:42:10;;;;;;;10.00;6.47;;;;;;;23.10;53.28;102600.88;4982282;28;20046;-49
2021/08/25 09:44:36;;;;;;;12.60;6.38;;;;;;;22.94;55.37;102599.28;4982405;28;20026;-46
2021/08/25 09:47:03;;;;;;;9.23;6.07;;;;;;;22.80;56.25;102604.75;4974904;28;20098;-46
2021/08/25 09:49:29;;;;;;;9.90;6.28;;;;;;;21.87;55.48;102607.19;4978639;28;20492;-48
2021/08/25 09:51:55;;;;;;;9.63;6.30;;;;;;;21.63;57.33;102615.28;4981760;28;20022;-48
2021/08/25 09:54:22;;;;;;;11.20;6.28;;;;;;;21.39;57.66;102627.78;4977834;28;20025;-47
2021/08/25 09:56:51;;;;;;;12.05;6.72;;;;;;;21.31;57.99;102610.09;4983291;28;20033;-48
2021/08/25 09:59:16;;;;;;;10.20;5.60;;;;;;;21.76;57.52;102609.03;4981590;28;20124;-48
2021/08/25 10:01:42;;;;;;;9.07;5.07;;;;;;;22.08;56.71;102607.06;4983284;28;20362;-47
2021/08/25 10:04:09;;;;;;;7.85;6.20;;;;;;;22.45;55.18;102605.03;4986008;28;20393;-50
2021/08/25 10:06:46;;;;;;;8.10;5.72;;;;;;;22.76;54.50;102607.44;4981014;28;20111;-47
2021/08/25 10:09:12;;;;;;;9.20;6.13;;;;;;;22.89;53.81;102611.75;4980486;28;20062;-47
2021/08/25 10:11:41;;;;;;;10.80;6.10;;;;;;;22.59;53.20;102603.13;4997419;28;20022;-48
2021/08/25 10:14:08;;;;;;;9.85;6.25;;;;;;;22.89;52.33;102601.09;4981560;28;20045;-49
2021/08/25 10:16:49;;;;;;;10.35;6.20;;;;;;;23.31;53.57;102597.06;4982526;28;20505;-47
2021/08/25 10:19:39;;;;;;;8.35;6.50;;;;;;;23.29;51.30;102588.25;4974237;28;20101;-47
2021/08/25 10:22:24;;;;;;;9.23;5.57;;;;;;;23.77;51.17;102579.66;4980190;28;20155;-50
2021/08/25 10:24:52;;;;;;;9.70;6.15;;;;;;;23.53;49.95;102577.31;4983652;28;20038;-49
2021/08/25 10:27:18;;;;;;;10.23;6.63;;;;;;;23.60;51.86;102573.69;4978518;28;20034;-49
2021/08/25 10:30:02;;;;;;;11.00;4.30;;;;;;;23.71;51.16;102568.19;4986632;28;20049;-47
2021/08/25 10:32:37;;;;;;;;;;;;;;;23.96;52.34;102568.72;4979650;28;20549;-49
2021/08/25 10:35:19;;;;;;;7.30;4.50;;;;;;;24.66;49.51;102550.66;4980888;28;19925;-48
2021/08/25 10:37:46;;;;;;;9.57;3.92;;;;;;;24.86;49.17;102547.59;4981115;28;20017;-50
2021/08/25 10:40:12;;;;;;;7.63;3.78;;;;;;;24.76;47.14;102542.50;4985756;28;20053;-49
2021/08/25 10:42:44;;;;;;;7.78;4.07;;;;;;;24.08;49.49;102548.09;4984869;28;20439;-48
2021/08/25 10:45:10;;;;;;;7.22;3.50;;;;;;;24.15;49.43;102541.72;4984254;28;20065;-49
2021/08/25 10:48:11;;;;;;;4.22;3.10;;;;;;;24.32;49.23;102537.97;4983438;28;20117;-49
2021/08/25 10:50:53;;;;;;;6.53;3.80;;;;;;;24.46;48.47;102544.78;4965740;28;20150;-50
2021/08/25 10:53:28;;;;;;;8.52;3.70;;;;;;;24.17;48.98;102544.38;4978778;28;20124;-50
2021/08/25 10:56:32;;;;;;;5.95;3.38;;;;;;;24.02;49.04;102540.19;4983199;28;20088;-47
2021/08/25 10:59:02;;;;;;;11.82;3.60;;;;;;;24.05;48.39;102529.47;4979653;28;20030;-48
2021/08/25 11:01:30;;;;;;;7.05;3.33;;;;;;;24.13;50.49;102538.22;4982812;28;20022;-47
2021/08/25 11:03:59;;;;;;;6.32;3.00;;;;;;;24.29;48.96;102540.66;4967737;28;20438;-49
2021/08/25 11:06:40;;;;;;;3.97;2.70;;;;;;;24.47;49.37;102535.00;4982920;28;21269;-47
2021/08/25 11:09:16;;;;;;;5.93;3.10;;;;;;;24.74;48.15;102525.63;4982359;28;20030;-49